sensor_id;sensor_type;location;lat;lon;timestamp;P1;durP1;ratioP1;P2;durP2;ratioP2
20080;SDS011;10200;49.232;9.222;2024-02-04T00:00:34;2.23;;;1.70;;
20080;SDS011;10200;49.232;9.222;2024-02-04T00:02:59;1.67;;;1.57;;
20080;SDS011;10200;49.232;9.222;2024-02-04T00:05:25;3.17;;;1.60;;
20080;SDS011;10200;49.232;9.222;2024-02-04T00:07:50;1.77;;;1.30;;
20080;SDS011;10200;49.232;9.222;2024-02-04T00:10:16;1.60;;;1.40;;
20080;SDS011;10200;49.232;9.222;2024-02-04T00:12:43;1.97;;;1.57;;
20080;SDS011;10200;49.232;9.222;2024-02-04T00:15:09;2.37;;;1.47;;
20080;SDS011;10200;49.232;9.222;2024-02-04T00:17:34;2.00;;;1.37;;
20080;SDS011;10200;49.232;9.222;2024-02-04T00:20:01;3.93;;;1.73;;
20080;SDS011;10200;49.232;9.222;2024-02-04T00:22:28;1.60;;;1.50;;
20080;SDS011;10200;49.232;9.222;2024-02-04T00:24:54;3.37;;;1.67;;
20080;SDS011;10200;49.232;9.222;2024-02-04T00:27:21;2.53;;;1.40;;
20080;SDS011;10200;49.232;9.222;2024-02-04T00:29:46;2.03;;;1.47;;
20080;SDS011;10200;49.232;9.222;2024-02-04T00:32:12;1.83;;;1.43;;
20080;SDS011;10200;49.232;9.222;2024-02-04T00:34:37;2.17;;;1.67;;
20080;SDS011;10200;49.232;9.222;2024-02-04T00:37:03;3.00;;;1.80;;
20080;SDS011;10200;49.232;9.222;2024-02-04T00:39:30;1.60;;;1.50;;
20080;SDS011;10200;49.232;9.222;2024-02-04T00:41:55;1.53;;;1.43;;
20080;SDS011;10200;49.232;9.222;2024-02-04T00:44:21;2.23;;;1.63;;
20080;SDS011;10200;49.232;9.222;2024-02-04T00:46:46;4.20;;;2.00;;
20080;SDS011;10200;49.232;9.222;2024-02-04T00:49:12;2.33;;;2.10;;
20080;SDS011;10200;49.232;9.222;2024-02-04T00:51:38;3.83;;;1.90;;
20080;SDS011;10200;49.232;9.222;2024-02-04T00:54:03;1.83;;;1.73;;
20080;SDS011;10200;49.232;9.222;2024-02-04T00:56:30;3.47;;;2.13;;
20080;SDS011;10200;49.232;9.222;2024-02-04T00:58:55;1.60;;;1.40;;
20080;SDS011;10200;49.232;9.222;2024-02-04T01:01:21;2.30;;;1.77;;
20080;SDS011;10200;49.232;9.222;2024-02-04T01:03:46;2.00;;;1.80;;
20080;SDS011;10200;49.232;9.222;2024-02-04T01:06:12;2.07;;;1.97;;
20080;SDS011;10200;49.232;9.222;2024-02-04T01:08:38;2.87;;;1.83;;
20080;SDS011;10200;49.232;9.222;2024-02-04T01:11:06;3.13;;;1.90;;
20080;SDS011;10200;49.232;9.222;2024-02-04T01:13:32;1.60;;;1.50;;
20080;SDS011;10200;49.232;9.222;2024-02-04T01:15:58;2.37;;;1.80;;
20080;SDS011;10200;49.232;9.222;2024-02-04T01:18:23;3.03;;;2.23;;
20080;SDS011;10200;49.232;9.222;2024-02-04T01:20:49;1.63;;;1.53;;
20080;SDS011;10200;49.232;9.222;2024-02-04T01:23:14;1.63;;;1.40;;
20080;SDS011;10200;49.232;9.222;2024-02-04T01:25:42;2.10;;;1.70;;
20080;SDS011;10200;49.232;9.222;2024-02-04T01:28:08;4.13;;;1.73;;
20080;SDS011;10200;49.232;9.222;2024-02-04T01:30:34;1.73;;;1.60;;
20080;SDS011;10200;49.232;9.222;2024-02-04T01:33:00;1.90;;;1.60;;
20080;SDS011;10200;49.232;9.222;2024-02-04T01:35:25;2.00;;;1.73;;
20080;SDS011;10200;49.232;9.222;2024-02-04T01:37:51;1.57;;;1.47;;
20080;SDS011;10200;49.232;9.222;2024-02-04T01:40:16;3.47;;;2.00;;
20080;SDS011;10200;49.232;9.222;2024-02-04T01:42:42;2.57;;;1.50;;
20080;SDS011;10200;49.232;9.222;2024-02-04T01:45:08;1.67;;;1.50;;
20080;SDS011;10200;49.232;9.222;2024-02-04T01:47:34;1.97;;;1.53;;
20080;SDS011;10200;49.232;9.222;2024-02-04T01:50:00;1.70;;;1.60;;
20080;SDS011;10200;49.232;9.222;2024-02-04T01:52:26;2.53;;;1.30;;
20080;SDS011;10200;49.232;9.222;2024-02-04T01:54:52;1.60;;;1.50;;
20080;SDS011;10200;49.232;9.222;2024-02-04T01:57:18;1.63;;;1.27;;
20080;SDS011;10200;49.232;9.222;2024-02-04T01:59:44;1.97;;;1.77;;
20080;SDS011;10200;49.232;9.222;2024-02-04T02:02:12;3.77;;;2.43;;
20080;SDS011;10200;49.232;9.222;2024-02-04T02:04:38;1.37;;;1.13;;
20080;SDS011;10200;49.232;9.222;2024-02-04T02:07:04;1.40;;;1.30;;
20080;SDS011;10200;49.232;9.222;2024-02-04T02:09:32;2.53;;;1.57;;
20080;SDS011;10200;49.232;9.222;2024-02-04T02:14:33;1.67;;;1.33;;
20080;SDS011;10200;49.232;9.222;2024-02-04T02:17:03;1.40;;;1.30;;
20080;SDS011;10200;49.232;9.222;2024-02-04T02:19:52;1.27;;;1.17;;
20080;SDS011;10200;49.232;9.222;2024-02-04T02:22:32;1.70;;;1.20;;
20080;SDS011;10200;49.232;9.222;2024-02-04T02:25:08;2.70;;;1.13;;
20080;SDS011;10200;49.232;9.222;2024-02-04T02:27:45;2.43;;;1.27;;
20080;SDS011;10200;49.232;9.222;2024-02-04T02:30:11;1.80;;;1.40;;
20080;SDS011;10200;49.232;9.222;2024-02-04T02:32:37;1.37;;;1.27;;
20080;SDS011;10200;49.232;9.222;2024-02-04T02:35:03;2.17;;;1.23;;
20080;SDS011;10200;49.232;9.222;2024-02-04T02:40:26;1.57;;;1.00;;
20080;SDS011;10200;49.232;9.222;2024-02-04T02:43:01;1.53;;;1.37;;
20080;SDS011;10200;49.232;9.222;2024-02-04T02:45:28;1.37;;;1.13;;
20080;SDS011;10200;49.232;9.222;2024-02-04T02:47:54;1.43;;;1.33;;
20080;SDS011;10200;49.232;9.222;2024-02-04T02:50:20;2.73;;;1.13;;
20080;SDS011;10200;49.232;9.222;2024-02-04T02:52:47;4.33;;;1.20;;
20080;SDS011;10200;49.232;9.222;2024-02-04T02:55:12;2.63;;;1.07;;
20080;SDS011;10200;49.232;9.222;2024-02-04T02:57:38;1.60;;;1.23;;
20080;SDS011;10200;49.232;9.222;2024-02-04T03:00:03;0.90;;;0.90;;
20080;SDS011;10200;49.232;9.222;2024-02-04T03:02:31;1.77;;;1.20;;
20080;SDS011;10200;49.232;9.222;2024-02-04T03:04:57;1.10;;;1.00;;
20080;SDS011;10200;49.232;9.222;2024-02-04T03:07:22;1.43;;;1.10;;
20080;SDS011;10200;49.232;9.222;2024-02-04T03:09:48;1.30;;;1.07;;
20080;SDS011;10200;49.232;9.222;2024-02-04T03:12:13;1.20;;;1.10;;
20080;SDS011;10200;49.232;9.222;2024-02-04T03:14:39;1.33;;;1.10;;
20080;SDS011;10200;49.232;9.222;2024-02-04T03:17:05;1.37;;;1.27;;
20080;SDS011;10200;49.232;9.222;2024-02-04T03:19:30;1.20;;;1.10;;
20080;SDS011;10200;49.232;9.222;2024-02-04T03:21:56;1.00;;;0.90;;
20080;SDS011;10200;49.232;9.222;2024-02-04T03:24:21;1.60;;;1.20;;
20080;SDS011;10200;49.232;9.222;2024-02-04T03:26:47;1.20;;;1.00;;
20080;SDS011;10200;49.232;9.222;2024-02-04T03:29:13;1.13;;;1.03;;
20080;SDS011;10200;49.232;9.222;2024-02-04T03:31:38;1.13;;;1.03;;
20080;SDS011;10200;49.232;9.222;2024-02-04T03:34:04;1.33;;;1.23;;
20080;SDS011;10200;49.232;9.222;2024-02-04T03:36:30;1.33;;;1.00;;
20080;SDS011;10200;49.232;9.222;2024-02-04T03:38:56;0.80;;;0.80;;
20080;SDS011;10200;49.232;9.222;2024-02-04T03:41:21;3.67;;;0.93;;
20080;SDS011;10200;49.232;9.222;2024-02-04T03:43:47;1.57;;;1.23;;
20080;SDS011;10200;49.232;9.222;2024-02-04T03:46:16;1.20;;;1.10;;
20080;SDS011;10200;49.232;9.222;2024-02-04T03:48:42;1.20;;;1.00;;
20080;SDS011;10200;49.232;9.222;2024-02-04T03:51:08;1.00;;;0.90;;
20080;SDS011;10200;49.232;9.222;2024-02-04T03:53:39;1.40;;;1.10;;
20080;SDS011;10200;49.232;9.222;2024-02-04T03:56:05;1.40;;;1.03;;
20080;SDS011;10200;49.232;9.222;2024-02-04T03:58:32;1.20;;;1.00;;
20080;SDS011;10200;49.232;9.222;2024-02-04T04:00:58;0.83;;;0.70;;
20080;SDS011;10200;49.232;9.222;2024-02-04T04:03:24;1.00;;;0.90;;
20080;SDS011;10200;49.232;9.222;2024-02-04T04:05:49;1.97;;;1.10;;
20080;SDS011;10200;49.232;9.222;2024-02-04T04:08:15;0.97;;;0.97;;
20080;SDS011;10200;49.232;9.222;2024-02-04T04:10:43;1.87;;;1.00;;
20080;SDS011;10200;49.232;9.222;2024-02-04T04:13:08;1.00;;;0.90;;
20080;SDS011;10200;49.232;9.222;2024-02-04T04:15:34;0.90;;;0.90;;
20080;SDS011;10200;49.232;9.222;2024-02-04T04:17:59;1.67;;;0.93;;
20080;SDS011;10200;49.232;9.222;2024-02-04T04:20:25;1.83;;;0.93;;
20080;SDS011;10200;49.232;9.222;2024-02-04T04:22:50;1.70;;;1.20;;
20080;SDS011;10200;49.232;9.222;2024-02-04T04:25:16;2.20;;;0.90;;
20080;SDS011;10200;49.232;9.222;2024-02-04T04:27:42;1.30;;;1.07;;
20080;SDS011;10200;49.232;9.222;2024-02-04T04:30:08;1.37;;;1.17;;
20080;SDS011;10200;49.232;9.222;2024-02-04T04:32:34;1.10;;;1.00;;
20080;SDS011;10200;49.232;9.222;2024-02-04T04:35:00;1.03;;;0.93;;
20080;SDS011;10200;49.232;9.222;2024-02-04T04:37:26;1.67;;;1.10;;
20080;SDS011;10200;49.232;9.222;2024-02-04T04:39:51;1.30;;;1.20;;
20080;SDS011;10200;49.232;9.222;2024-02-04T04:42:17;1.20;;;1.10;;
20080;SDS011;10200;49.232;9.222;2024-02-04T04:44:43;1.60;;;1.00;;
20080;SDS011;10200;49.232;9.222;2024-02-04T04:47:08;1.37;;;0.97;;
20080;SDS011;10200;49.232;9.222;2024-02-04T04:49:34;1.10;;;1.00;;
20080;SDS011;10200;49.232;9.222;2024-02-04T04:51:59;2.30;;;1.23;;
20080;SDS011;10200;49.232;9.222;2024-02-04T04:54:25;1.70;;;0.90;;
20080;SDS011;10200;49.232;9.222;2024-02-04T04:56:52;1.47;;;1.23;;
20080;SDS011;10200;49.232;9.222;2024-02-04T04:59:18;1.10;;;1.00;;
20080;SDS011;10200;49.232;9.222;2024-02-04T05:01:50;1.50;;;1.20;;
20080;SDS011;10200;49.232;9.222;2024-02-04T05:04:16;1.27;;;1.00;;
20080;SDS011;10200;49.232;9.222;2024-02-04T05:06:43;1.20;;;1.10;;
20080;SDS011;10200;49.232;9.222;2024-02-04T05:09:09;1.20;;;1.03;;
20080;SDS011;10200;49.232;9.222;2024-02-04T05:11:35;1.10;;;1.03;;
20080;SDS011;10200;49.232;9.222;2024-02-04T05:14:00;1.23;;;1.03;;
20080;SDS011;10200;49.232;9.222;2024-02-04T05:16:26;1.30;;;1.20;;
20080;SDS011;10200;49.232;9.222;2024-02-04T05:18:52;1.80;;;1.10;;
20080;SDS011;10200;49.232;9.222;2024-02-04T05:21:17;1.07;;;1.00;;
20080;SDS011;10200;49.232;9.222;2024-02-04T05:23:44;1.20;;;1.10;;
20080;SDS011;10200;49.232;9.222;2024-02-04T05:26:10;1.00;;;1.00;;
20080;SDS011;10200;49.232;9.222;2024-02-04T05:28:35;1.53;;;1.30;;
20080;SDS011;10200;49.232;9.222;2024-02-04T05:31:01;1.50;;;1.33;;
20080;SDS011;10200;49.232;9.222;2024-02-04T05:33:27;1.53;;;1.10;;
20080;SDS011;10200;49.232;9.222;2024-02-04T05:35:53;1.10;;;1.00;;
20080;SDS011;10200;49.232;9.222;2024-02-04T05:38:18;1.20;;;1.03;;
20080;SDS011;10200;49.232;9.222;2024-02-04T05:40:44;1.13;;;1.03;;
20080;SDS011;10200;49.232;9.222;2024-02-04T05:43:10;0.70;;;0.70;;
20080;SDS011;10200;49.232;9.222;2024-02-04T05:45:36;4.10;;;1.10;;
20080;SDS011;10200;49.232;9.222;2024-02-04T05:48:04;1.40;;;1.00;;
20080;SDS011;10200;49.232;9.222;2024-02-04T05:50:29;1.93;;;1.23;;
20080;SDS011;10200;49.232;9.222;2024-02-04T05:52:55;1.27;;;1.10;;
20080;SDS011;10200;49.232;9.222;2024-02-04T05:55:21;1.50;;;1.00;;
20080;SDS011;10200;49.232;9.222;2024-02-04T05:57:46;1.00;;;0.83;;
20080;SDS011;10200;49.232;9.222;2024-02-04T06:00:12;1.57;;;1.03;;
20080;SDS011;10200;49.232;9.222;2024-02-04T06:02:38;1.40;;;1.30;;
20080;SDS011;10200;49.232;9.222;2024-02-04T06:05:03;1.50;;;1.07;;
20080;SDS011;10200;49.232;9.222;2024-02-04T06:07:29;1.30;;;1.00;;
20080;SDS011;10200;49.232;9.222;2024-02-04T06:09:55;1.20;;;1.10;;
20080;SDS011;10200;49.232;9.222;2024-02-04T06:12:25;1.07;;;0.90;;
20080;SDS011;10200;49.232;9.222;2024-02-04T06:14:50;1.10;;;0.97;;
20080;SDS011;10200;49.232;9.222;2024-02-04T06:17:16;1.17;;;0.80;;
20080;SDS011;10200;49.232;9.222;2024-02-04T06:19:42;0.80;;;0.80;;
20080;SDS011;10200;49.232;9.222;2024-02-04T06:22:07;1.17;;;0.90;;
20080;SDS011;10200;49.232;9.222;2024-02-04T06:24:33;1.37;;;1.00;;
20080;SDS011;10200;49.232;9.222;2024-02-04T06:26:58;1.17;;;1.07;;
20080;SDS011;10200;49.232;9.222;2024-02-04T06:29:24;1.33;;;0.80;;
20080;SDS011;10200;49.232;9.222;2024-02-04T06:31:49;2.60;;;0.67;;
20080;SDS011;10200;49.232;9.222;2024-02-04T06:34:15;2.30;;;1.20;;
20080;SDS011;10200;49.232;9.222;2024-02-04T06:36:44;1.07;;;1.00;;
20080;SDS011;10200;49.232;9.222;2024-02-04T06:39:10;1.10;;;1.00;;
20080;SDS011;10200;49.232;9.222;2024-02-04T06:41:36;1.40;;;1.00;;
20080;SDS011;10200;49.232;9.222;2024-02-04T06:44:04;1.37;;;1.10;;
20080;SDS011;10200;49.232;9.222;2024-02-04T06:46:30;1.80;;;1.17;;
20080;SDS011;10200;49.232;9.222;2024-02-04T06:48:56;2.17;;;0.90;;
20080;SDS011;10200;49.232;9.222;2024-02-04T06:51:22;1.10;;;1.00;;
20080;SDS011;10200;49.232;9.222;2024-02-04T06:53:48;1.67;;;0.97;;
20080;SDS011;10200;49.232;9.222;2024-02-04T06:56:14;1.43;;;1.10;;
20080;SDS011;10200;49.232;9.222;2024-02-04T06:58:40;1.00;;;0.90;;
20080;SDS011;10200;49.232;9.222;2024-02-04T07:01:06;1.20;;;1.10;;
20080;SDS011;10200;49.232;9.222;2024-02-04T07:03:32;3.33;;;1.37;;
20080;SDS011;10200;49.232;9.222;2024-02-04T07:05:58;1.20;;;1.07;;
20080;SDS011;10200;49.232;9.222;2024-02-04T07:08:24;1.40;;;1.30;;
20080;SDS011;10200;49.232;9.222;2024-02-04T07:10:50;2.13;;;1.03;;
20080;SDS011;10200;49.232;9.222;2024-02-04T07:13:16;0.90;;;0.80;;
20080;SDS011;10200;49.232;9.222;2024-02-04T07:15:42;2.13;;;1.00;;
20080;SDS011;10200;49.232;9.222;2024-02-04T07:18:07;1.53;;;1.00;;
20080;SDS011;10200;49.232;9.222;2024-02-04T07:20:33;1.90;;;0.90;;
20080;SDS011;10200;49.232;9.222;2024-02-04T07:22:58;1.30;;;0.90;;
20080;SDS011;10200;49.232;9.222;2024-02-04T07:25:24;0.70;;;0.70;;
20080;SDS011;10200;49.232;9.222;2024-02-04T07:27:50;0.80;;;0.80;;
20080;SDS011;10200;49.232;9.222;2024-02-04T07:30:16;1.77;;;0.90;;
20080;SDS011;10200;49.232;9.222;2024-02-04T07:32:42;1.10;;;0.80;;
20080;SDS011;10200;49.232;9.222;2024-02-04T07:35:07;1.10;;;1.00;;
20080;SDS011;10200;49.232;9.222;2024-02-04T07:37:35;0.57;;;0.57;;
20080;SDS011;10200;49.232;9.222;2024-02-04T07:40:01;1.37;;;1.03;;
20080;SDS011;10200;49.232;9.222;2024-02-04T07:42:27;0.97;;;0.77;;
20080;SDS011;10200;49.232;9.222;2024-02-04T07:44:53;1.20;;;1.10;;
20080;SDS011;10200;49.232;9.222;2024-02-04T07:47:18;0.80;;;0.70;;
20080;SDS011;10200;49.232;9.222;2024-02-04T07:49:47;3.27;;;1.53;;
20080;SDS011;10200;49.232;9.222;2024-02-04T07:52:13;1.07;;;0.93;;
20080;SDS011;10200;49.232;9.222;2024-02-04T07:54:39;1.30;;;0.90;;
20080;SDS011;10200;49.232;9.222;2024-02-04T07:57:04;0.80;;;0.80;;
20080;SDS011;10200;49.232;9.222;2024-02-04T07:59:30;0.70;;;0.53;;
20080;SDS011;10200;49.232;9.222;2024-02-04T08:01:56;1.87;;;1.00;;
20080;SDS011;10200;49.232;9.222;2024-02-04T08:04:21;1.20;;;0.80;;
20080;SDS011;10200;49.232;9.222;2024-02-04T08:06:47;0.63;;;0.60;;
20080;SDS011;10200;49.232;9.222;2024-02-04T08:09:12;1.10;;;1.00;;
20080;SDS011;10200;49.232;9.222;2024-02-04T08:11:38;1.47;;;1.00;;
20080;SDS011;10200;49.232;9.222;2024-02-04T08:14:04;0.80;;;0.70;;
20080;SDS011;10200;49.232;9.222;2024-02-04T08:16:30;1.47;;;0.90;;
20080;SDS011;10200;49.232;9.222;2024-02-04T08:18:55;1.07;;;0.77;;
20080;SDS011;10200;49.232;9.222;2024-02-04T08:21:21;1.07;;;0.70;;
20080;SDS011;10200;49.232;9.222;2024-02-04T08:23:47;1.30;;;0.80;;
20080;SDS011;10200;49.232;9.222;2024-02-04T08:26:12;1.27;;;0.80;;
20080;SDS011;10200;49.232;9.222;2024-02-04T08:28:38;0.60;;;0.60;;
20080;SDS011;10200;49.232;9.222;2024-02-04T08:31:04;0.60;;;0.60;;
20080;SDS011;10200;49.232;9.222;2024-02-04T08:33:30;1.23;;;0.50;;
20080;SDS011;10200;49.232;9.222;2024-02-04T08:35:55;0.50;;;0.50;;
20080;SDS011;10200;49.232;9.222;2024-02-04T08:38:21;1.13;;;0.73;;
20080;SDS011;10200;49.232;9.222;2024-02-04T08:40:46;0.70;;;0.60;;
20080;SDS011;10200;49.232;9.222;2024-02-04T08:43:12;1.60;;;0.90;;
20080;SDS011;10200;49.232;9.222;2024-02-04T08:45:37;1.03;;;0.77;;
20080;SDS011;10200;49.232;9.222;2024-02-04T08:48:03;1.07;;;0.83;;
20080;SDS011;10200;49.232;9.222;2024-02-04T08:50:29;1.37;;;1.20;;
20080;SDS011;10200;49.232;9.222;2024-02-04T08:52:55;0.90;;;0.80;;
20080;SDS011;10200;49.232;9.222;2024-02-04T08:55:20;2.40;;;1.33;;
20080;SDS011;10200;49.232;9.222;2024-02-04T08:57:46;3.17;;;2.37;;
20080;SDS011;10200;49.232;9.222;2024-02-04T09:00:13;1.53;;;1.30;;
20080;SDS011;10200;49.232;9.222;2024-02-04T09:02:39;2.17;;;1.07;;
20080;SDS011;10200;49.232;9.222;2024-02-04T09:05:05;3.50;;;1.30;;
20080;SDS011;10200;49.232;9.222;2024-02-04T09:07:31;1.37;;;0.60;;
20080;SDS011;10200;49.232;9.222;2024-02-04T09:09:57;1.70;;;1.13;;
20080;SDS011;10200;49.232;9.222;2024-02-04T09:12:22;1.40;;;1.10;;
20080;SDS011;10200;49.232;9.222;2024-02-04T09:14:48;0.60;;;0.60;;
20080;SDS011;10200;49.232;9.222;2024-02-04T09:17:14;1.90;;;0.70;;
20080;SDS011;10200;49.232;9.222;2024-02-04T09:19:39;1.20;;;1.07;;
20080;SDS011;10200;49.232;9.222;2024-02-04T09:22:05;0.53;;;0.50;;
20080;SDS011;10200;49.232;9.222;2024-02-04T09:24:30;0.60;;;0.60;;
20080;SDS011;10200;49.232;9.222;2024-02-04T09:26:56;1.30;;;1.00;;
20080;SDS011;10200;49.232;9.222;2024-02-04T09:29:22;1.20;;;0.60;;
20080;SDS011;10200;49.232;9.222;2024-02-04T09:31:47;0.60;;;0.60;;
20080;SDS011;10200;49.232;9.222;2024-02-04T09:34:14;0.70;;;0.70;;
20080;SDS011;10200;49.232;9.222;2024-02-04T09:36:40;1.00;;;0.63;;
20080;SDS011;10200;49.232;9.222;2024-02-04T09:39:06;0.90;;;0.70;;
20080;SDS011;10200;49.232;9.222;2024-02-04T09:41:32;1.07;;;0.73;;
20080;SDS011;10200;49.232;9.222;2024-02-04T09:43:58;0.93;;;0.87;;
20080;SDS011;10200;49.232;9.222;2024-02-04T09:46:25;1.83;;;1.53;;
20080;SDS011;10200;49.232;9.222;2024-02-04T09:48:53;4.17;;;2.03;;
20080;SDS011;10200;49.232;9.222;2024-02-04T09:51:20;1.23;;;0.90;;
20080;SDS011;10200;49.232;9.222;2024-02-04T09:53:46;3.77;;;0.60;;
20080;SDS011;10200;49.232;9.222;2024-02-04T09:56:16;0.57;;;0.57;;
20080;SDS011;10200;49.232;9.222;2024-02-04T09:58:43;0.50;;;0.50;;
20080;SDS011;10200;49.232;9.222;2024-02-04T10:01:10;2.43;;;0.60;;
20080;SDS011;10200;49.232;9.222;2024-02-04T10:03:36;2.83;;;1.30;;
20080;SDS011;10200;49.232;9.222;2024-02-04T10:06:02;2.70;;;1.00;;
20080;SDS011;10200;49.232;9.222;2024-02-04T10:08:29;1.37;;;0.70;;
20080;SDS011;10200;49.232;9.222;2024-02-04T10:10:55;0.90;;;0.80;;
20080;SDS011;10200;49.232;9.222;2024-02-04T10:13:21;1.20;;;1.07;;
20080;SDS011;10200;49.232;9.222;2024-02-04T10:15:47;1.70;;;1.10;;
20080;SDS011;10200;49.232;9.222;2024-02-04T10:18:13;1.53;;;1.27;;
20080;SDS011;10200;49.232;9.222;2024-02-04T10:20:39;1.47;;;1.37;;
20080;SDS011;10200;49.232;9.222;2024-02-04T10:23:05;0.77;;;0.70;;
20080;SDS011;10200;49.232;9.222;2024-02-04T10:25:30;0.87;;;0.70;;
20080;SDS011;10200;49.232;9.222;2024-02-04T10:27:56;0.40;;;0.40;;
20080;SDS011;10200;49.232;9.222;2024-02-04T10:30:23;0.50;;;0.50;;
20080;SDS011;10200;49.232;9.222;2024-02-04T10:32:52;0.73;;;0.50;;
20080;SDS011;10200;49.232;9.222;2024-02-04T10:35:25;0.30;;;0.30;;
20080;SDS011;10200;49.232;9.222;2024-02-04T10:37:50;0.50;;;0.50;;
20080;SDS011;10200;49.232;9.222;2024-02-04T10:40:16;1.57;;;0.83;;
20080;SDS011;10200;49.232;9.222;2024-02-04T10:42:42;1.00;;;0.80;;
20080;SDS011;10200;49.232;9.222;2024-02-04T10:45:09;0.50;;;0.50;;
20080;SDS011;10200;49.232;9.222;2024-02-04T10:47:39;0.60;;;0.60;;
20080;SDS011;10200;49.232;9.222;2024-02-04T10:50:05;0.40;;;0.40;;
20080;SDS011;10200;49.232;9.222;2024-02-04T10:52:35;0.47;;;0.47;;
20080;SDS011;10200;49.232;9.222;2024-02-04T10:55:07;0.80;;;0.40;;
20080;SDS011;10200;49.232;9.222;2024-02-04T10:57:39;0.40;;;0.40;;
20080;SDS011;10200;49.232;9.222;2024-02-04T11:00:05;0.80;;;0.50;;
20080;SDS011;10200;49.232;9.222;2024-02-04T11:02:36;0.57;;;0.50;;
20080;SDS011;10200;49.232;9.222;2024-02-04T11:05:04;0.40;;;0.40;;
20080;SDS011;10200;49.232;9.222;2024-02-04T11:07:33;0.40;;;0.40;;
20080;SDS011;10200;49.232;9.222;2024-02-04T11:10:00;1.70;;;0.70;;
20080;SDS011;10200;49.232;9.222;2024-02-04T11:12:27;0.67;;;0.60;;
20080;SDS011;10200;49.232;9.222;2024-02-04T11:14:56;0.60;;;0.50;;
20080;SDS011;10200;49.232;9.222;2024-02-04T11:25:58;1.17;;;0.70;;
20080;SDS011;10200;49.232;9.222;2024-02-04T11:28:24;0.83;;;0.70;;
20080;SDS011;10200;49.232;9.222;2024-02-04T11:30:51;1.20;;;0.80;;
20080;SDS011;10200;49.232;9.222;2024-02-04T11:33:17;0.97;;;0.87;;
20080;SDS011;10200;49.232;9.222;2024-02-04T11:35:44;1.27;;;0.73;;
20080;SDS011;10200;49.232;9.222;2024-02-04T11:38:10;0.70;;;0.67;;
20080;SDS011;10200;49.232;9.222;2024-02-04T11:40:38;0.90;;;0.80;;
20080;SDS011;10200;49.232;9.222;2024-02-04T11:43:10;0.83;;;0.70;;
20080;SDS011;10200;49.232;9.222;2024-02-04T11:45:37;0.83;;;0.60;;
20080;SDS011;10200;49.232;9.222;2024-02-04T11:48:07;0.67;;;0.60;;
20080;SDS011;10200;49.232;9.222;2024-02-04T11:50:34;1.30;;;0.73;;
20080;SDS011;10200;49.232;9.222;2024-02-04T11:53:07;1.17;;;1.07;;
20080;SDS011;10200;49.232;9.222;2024-02-04T11:55:35;1.10;;;1.00;;
20080;SDS011;10200;49.232;9.222;2024-02-04T11:58:01;0.60;;;0.57;;
20080;SDS011;10200;49.232;9.222;2024-02-04T12:00:28;1.90;;;1.37;;
20080;SDS011;10200;49.232;9.222;2024-02-04T12:03:03;1.20;;;1.10;;
20080;SDS011;10200;49.232;9.222;2024-02-04T12:05:34;0.90;;;0.90;;
20080;SDS011;10200;49.232;9.222;2024-02-04T12:08:09;1.47;;;1.10;;
20080;SDS011;10200;49.232;9.222;2024-02-04T12:10:36;0.93;;;0.83;;
20080;SDS011;10200;49.232;9.222;2024-02-04T12:13:04;4.20;;;1.20;;
20080;SDS011;10200;49.232;9.222;2024-02-04T12:15:31;1.30;;;1.00;;
20080;SDS011;10200;49.232;9.222;2024-02-04T12:18:08;1.50;;;0.60;;
20080;SDS011;10200;49.232;9.222;2024-02-04T12:20:35;1.17;;;1.00;;
20080;SDS011;10200;49.232;9.222;2024-02-04T12:23:05;2.00;;;1.30;;
20080;SDS011;10200;49.232;9.222;2024-02-04T12:25:31;1.13;;;1.00;;
20080;SDS011;10200;49.232;9.222;2024-02-04T12:27:58;1.00;;;1.00;;
20080;SDS011;10200;49.232;9.222;2024-02-04T12:30:24;0.60;;;0.60;;
20080;SDS011;10200;49.232;9.222;2024-02-04T12:33:01;1.23;;;1.00;;
20080;SDS011;10200;49.232;9.222;2024-02-04T12:35:29;1.37;;;1.10;;
20080;SDS011;10200;49.232;9.222;2024-02-04T12:37:56;1.00;;;0.90;;
20080;SDS011;10200;49.232;9.222;2024-02-04T12:40:23;1.47;;;1.00;;
20080;SDS011;10200;49.232;9.222;2024-02-04T12:43:10;0.80;;;0.70;;
20080;SDS011;10200;49.232;9.222;2024-02-04T12:45:36;1.10;;;0.93;;
20080;SDS011;10200;49.232;9.222;2024-02-04T12:48:02;1.73;;;1.10;;
20080;SDS011;10200;49.232;9.222;2024-02-04T12:50:28;1.83;;;1.00;;
20080;SDS011;10200;49.232;9.222;2024-02-04T12:53:07;2.07;;;1.13;;
20080;SDS011;10200;49.232;9.222;2024-02-04T12:55:36;1.33;;;1.10;;
20080;SDS011;10200;49.232;9.222;2024-02-04T13:00:32;3.70;;;1.33;;
20080;SDS011;10200;49.232;9.222;2024-02-04T13:02:58;1.43;;;0.87;;
20080;SDS011;10200;49.232;9.222;2024-02-04T13:05:24;0.60;;;0.60;;
20080;SDS011;10200;49.232;9.222;2024-02-04T13:07:54;0.77;;;0.73;;
20080;SDS011;10200;49.232;9.222;2024-02-04T13:10:24;1.10;;;0.83;;
20080;SDS011;10200;49.232;9.222;2024-02-04T13:12:57;1.07;;;0.97;;
20080;SDS011;10200;49.232;9.222;2024-02-04T13:15:25;1.80;;;0.83;;
20080;SDS011;10200;49.232;9.222;2024-02-04T13:17:54;1.50;;;1.10;;
20080;SDS011;10200;49.232;9.222;2024-02-04T13:20:20;1.17;;;0.90;;
20080;SDS011;10200;49.232;9.222;2024-02-04T13:22:46;2.30;;;1.00;;
20080;SDS011;10200;49.232;9.222;2024-02-04T13:25:12;1.00;;;0.90;;
20080;SDS011;10200;49.232;9.222;2024-02-04T13:27:38;0.60;;;0.60;;
20080;SDS011;10200;49.232;9.222;2024-02-04T13:30:04;1.40;;;1.03;;
20080;SDS011;10200;49.232;9.222;2024-02-04T13:32:35;0.80;;;0.80;;
20080;SDS011;10200;49.232;9.222;2024-02-04T13:35:00;1.30;;;0.90;;
20080;SDS011;10200;49.232;9.222;2024-02-04T13:37:26;1.00;;;0.80;;
20080;SDS011;10200;49.232;9.222;2024-02-04T13:39:51;1.00;;;0.90;;
20080;SDS011;10200;49.232;9.222;2024-02-04T13:42:17;3.33;;;1.00;;
20080;SDS011;10200;49.232;9.222;2024-02-04T13:44:43;1.07;;;1.00;;
20080;SDS011;10200;49.232;9.222;2024-02-04T13:47:08;1.50;;;1.07;;
20080;SDS011;10200;49.232;9.222;2024-02-04T13:49:34;2.70;;;1.10;;
20080;SDS011;10200;49.232;9.222;2024-02-04T13:51:59;1.53;;;1.13;;
20080;SDS011;10200;49.232;9.222;2024-02-04T13:54:26;0.77;;;0.77;;
20080;SDS011;10200;49.232;9.222;2024-02-04T13:56:52;1.30;;;1.20;;
20080;SDS011;10200;49.232;9.222;2024-02-04T13:59:17;2.23;;;1.40;;
20080;SDS011;10200;49.232;9.222;2024-02-04T14:01:43;1.60;;;1.00;;
20080;SDS011;10200;49.232;9.222;2024-02-04T14:04:09;1.10;;;1.00;;
20080;SDS011;10200;49.232;9.222;2024-02-04T14:06:35;0.87;;;0.87;;
20080;SDS011;10200;49.232;9.222;2024-02-04T14:09:00;1.13;;;1.03;;
20080;SDS011;10200;49.232;9.222;2024-02-04T14:11:26;1.60;;;1.40;;
20080;SDS011;10200;49.232;9.222;2024-02-04T14:13:51;2.33;;;1.23;;
20080;SDS011;10200;49.232;9.222;2024-02-04T14:16:17;1.57;;;1.10;;
20080;SDS011;10200;49.232;9.222;2024-02-04T14:18:42;1.70;;;1.60;;
20080;SDS011;10200;49.232;9.222;2024-02-04T14:21:11;2.03;;;1.03;;
20080;SDS011;10200;49.232;9.222;2024-02-04T14:23:39;0.80;;;0.80;;
20080;SDS011;10200;49.232;9.222;2024-02-04T14:26:05;1.53;;;1.07;;
20080;SDS011;10200;49.232;9.222;2024-02-04T14:28:33;2.87;;;1.20;;
20080;SDS011;10200;49.232;9.222;2024-02-04T14:31:06;2.70;;;1.17;;
20080;SDS011;10200;49.232;9.222;2024-02-04T14:33:32;2.83;;;1.53;;
20080;SDS011;10200;49.232;9.222;2024-02-04T14:35:58;2.57;;;1.80;;
20080;SDS011;10200;49.232;9.222;2024-02-04T14:38:25;1.90;;;1.70;;
20080;SDS011;10200;49.232;9.222;2024-02-04T14:40:51;2.17;;;1.77;;
20080;SDS011;10200;49.232;9.222;2024-02-04T14:43:16;2.57;;;2.10;;
20080;SDS011;10200;49.232;9.222;2024-02-04T14:45:43;2.37;;;1.70;;
20080;SDS011;10200;49.232;9.222;2024-02-04T14:48:09;4.80;;;3.40;;
20080;SDS011;10200;49.232;9.222;2024-02-04T14:50:34;2.40;;;1.90;;
20080;SDS011;10200;49.232;9.222;2024-02-04T14:53:00;4.03;;;2.33;;
20080;SDS011;10200;49.232;9.222;2024-02-04T14:55:26;2.00;;;1.77;;
20080;SDS011;10200;49.232;9.222;2024-02-04T14:57:52;1.50;;;1.40;;
20080;SDS011;10200;49.232;9.222;2024-02-04T15:00:18;2.47;;;1.30;;